Time;durP1;ratioP1;P1;durP2;ratioP2;P2;SDS_P1;SDS_P2;PMS_P1;PMS_P2;Temp;Humidity;BMP_temperature;BMP_pressure;BME280_temperature;BME280_humidity;BME280_pressure;Samples;Min_cycle;Max_cycle;Signal;HPM_P1;HPM_P2
2022/10/12 00:01:43;;;;;;;16.38;7.63;;;6.30;99.90;;;;;;4988786;28;20045;-70
2022/10/12 00:04:09;;;;;;;13.00;6.97;;;6.30;99.90;;;;;;5004158;28;20029;-70
2022/10/12 00:06:35;;;;;;;11.50;7.30;;;6.30;99.90;;;;;;4991864;28;20107;-70
2022/10/12 00:09:01;;;;;;;13.07;6.93;;;6.30;99.90;;;;;;4989086;28;20129;-70
2022/10/12 00:11:29;;;;;;;14.95;7.38;;;6.30;99.90;;;;;;4972695;28;20038;-69
2022/10/12 00:13:55;;;;;;;14.48;7.32;;;6.30;99.90;;;;;;4985827;28;20045;-69
2022/10/12 00:16:22;;;;;;;18.00;7.47;;;6.30;99.90;;;;;;5006520;28;20044;-69
2022/10/12 00:18:53;;;;;;;15.13;7.65;;;6.30;99.90;;;;;;5005783;28;20550;-69
2022/10/12 00:21:19;;;;;;;16.73;7.75;;;6.30;99.90;;;;;;5006733;28;20045;-70
2022/10/12 00:23:46;;;;;;;14.95;7.53;;;6.30;99.90;;;;;;5003220;28;20081;-69
2022/10/12 00:26:15;;;;;;;12.50;7.47;;;6.20;99.90;;;;;;4985679;28;20092;-70
2022/10/12 00:28:41;;;;;;;15.00;7.90;;;6.30;99.90;;;;;;5001316;28;20073;-70
2022/10/12 00:31:10;;;;;;;14.50;7.65;;;6.30;99.90;;;;;;4990653;28;20542;-69
2022/10/12 00:33:38;;;;;;;14.77;8.90;;;6.30;99.90;;;;;;4995904;28;20045;-69
2022/10/12 00:36:25;;;;;;;21.27;8.93;;;6.30;99.90;;;;;;4988447;28;20038;-69
2022/10/12 00:38:53;;;;;;;15.75;8.93;;;6.30;99.90;;;;;;5021708;28;21531;-70
2022/10/12 00:41:25;;;;;;;19.35;9.95;;;6.30;99.90;;;;;;5004838;28;20056;-68
2022/10/12 00:43:52;;;;;;;17.90;9.68;;;6.30;99.90;;;;;;5005265;28;20520;-69
2022/10/12 00:46:39;;;;;;;17.95;9.60;;;6.30;99.90;;;;;;4991744;28;20411;-69
2022/10/12 00:49:17;;;;;;;16.92;9.43;;;6.30;99.90;;;;;;4987768;28;20257;-70
2022/10/12 00:51:47;;;;;;;16.58;9.25;;;6.20;99.90;;;;;;5004863;28;20045;-70
2022/10/12 00:54:18;;;;;;;12.75;8.68;;;6.30;99.90;;;;;;4986397;28;20033;-69
2022/10/12 00:56:48;;;;;;;12.07;8.32;;;6.30;99.90;;;;;;5004644;28;20044;-68
2022/10/12 00:59:20;;;;;;;13.38;9.68;;;6.20;99.90;;;;;;5003732;28;20045;-68
2022/10/12 01:01:46;;;;;;;;;;;6.20;99.90;;;;;;5021684;28;20033;-70
2022/10/12 01:04:12;;;;;;;14.68;8.95;;;6.30;99.90;;;;;;5001976;28;20028;-70
2022/10/12 01:06:38;;;;;;;17.40;9.45;;;6.20;99.90;;;;;;5004774;28;20037;-70
2022/10/12 01:09:04;;;;;;;13.57;7.90;;;6.20;99.90;;;;;;4989137;28;20091;-70
2022/10/12 01:11:29;;;;;;;17.75;9.23;;;6.20;99.90;;;;;;4986330;28;20041;-69
2022/10/12 01:13:56;;;;;;;16.33;8.90;;;6.20;99.90;;;;;;5006864;28;20052;-70
2022/10/12 01:16:35;;;;;;;15.90;9.23;;;6.10;99.90;;;;;;4988923;28;20161;-69
2022/10/12 01:19:27;;;;;;;15.30;8.10;;;6.10;99.90;;;;;;5018700;28;20590;-70
2022/10/12 01:22:06;;;;;;;14.38;8.40;;;6.00;99.90;;;;;;4981084;28;20104;-69
2022/10/12 01:24:53;;;;;;;11.32;7.78;;;5.90;99.90;;;;;;5004492;28;20125;-69
2022/10/12 01:27:40;;;;;;;12.02;7.45;;;5.90;99.90;;;;;;5005068;28;20174;-70
2022/10/12 01:30:09;;;;;;;14.18;8.73;;;5.90;99.90;;;;;;5005465;28;20029;-70
2022/10/12 01:33:06;;;;;;;15.93;7.75;;;5.90;99.90;;;;;;5006318;28;20038;-70
2022/10/12 01:35:34;;;;;;;17.15;7.50;;;5.90;99.90;;;;;;5002319;28;20053;-70
2022/10/12 01:38:12;;;;;;;11.35;7.53;;;5.80;99.90;;;;;;5005062;28;20045;-70
2022/10/12 01:40:45;;;;;;;14.02;7.65;;;5.80;99.90;;;;;;5003272;28;20080;-70
2022/10/12 01:43:10;;;;;;;12.90;8.18;;;5.80;99.90;;;;;;4983602;28;20030;-69
2022/10/12 01:45:36;;;;;;;11.57;7.63;;;5.80;99.90;;;;;;4987177;28;20045;-69
2022/10/12 01:48:03;;;;;;;11.88;7.85;;;5.80;99.90;;;;;;5005244;28;20282;-70
2022/10/12 01:50:48;;;;;;;15.38;8.20;;;5.80;99.90;;;;;;5005235;28;20653;-70
2022/10/12 01:53:41;;;;;;;14.60;7.00;;;5.80;99.90;;;;;;4993874;28;20037;-70
2022/10/12 01:56:10;;;;;;;8.98;6.90;;;5.70;99.90;;;;;;5008924;28;20160;-69
2022/10/12 01:59:11;;;;;;;14.50;7.38;;;5.70;99.90;;;;;;4989936;28;20399;-70
2022/10/12 02:01:53;;;;;;;11.57;7.00;;;5.70;99.90;;;;;;4990255;28;20068;-70
2022/10/12 02:04:43;;;;;;;10.27;7.23;;;5.70;99.90;;;;;;5006622;28;20050;-69
2022/10/12 02:07:45;;;;;;;11.43;7.63;;;5.70;99.90;;;;;;5007986;28;20076;-69
2022/10/12 02:10:23;;;;;;;12.18;8.32;;;5.70;99.90;;;;;;4970465;28;20407;-68
2022/10/12 02:12:50;;;;;;;15.35;8.75;;;5.70;99.90;;;;;;5003205;28;20095;-69
2022/10/12 02:15:17;;;;;;;10.32;8.32;;;5.70;99.90;;;;;;4992169;28;20478;-69
2022/10/12 02:17:45;;;;;;;12.18;8.05;;;5.70;99.90;;;;;;4990468;28;20048;-70
2022/10/12 02:20:15;;;;;;;13.30;8.38;;;5.70;99.90;;;;;;5004681;28;20053;-70
2022/10/12 02:22:43;;;;;;;10.55;7.60;;;5.70;99.90;;;;;;5007778;28;20037;-70
2022/10/12 02:25:14;;;;;;;13.55;8.43;;;5.70;99.90;;;;;;5007804;28;20465;-70
2022/10/12 02:27:43;;;;;;;14.27;9.02;;;5.70;99.90;;;;;;5009440;28;20037;-70
2022/10/12 02:30:10;;;;;;;10.75;7.78;;;5.60;99.90;;;;;;5010061;28;20048;-69
2022/10/12 02:33:05;;;;;;;13.63;8.38;;;5.60;99.90;;;;;;5007346;28;20081;-69
2022/10/12 02:35:40;;;;;;;14.15;7.85;;;5.60;99.90;;;;;;4991430;28;20492;-70
2022/10/12 02:38:19;;;;;;;11.63;8.07;;;5.60;99.90;;;;;;4987337;28;20526;-70
2022/10/12 02:40:53;;;;;;;11.27;8.32;;;5.50;99.90;;;;;;5008563;28;20049;-70
2022/10/12 02:43:28;;;;;;;12.98;8.23;;;5.50;99.90;;;;;;5021320;28;20785;-69
2022/10/12 02:45:57;;;;;;;10.70;8.27;;;5.50;99.90;;;;;;4991706;28;20376;-69
2022/10/12 02:48:24;;;;;;;11.05;7.60;;;5.50;99.90;;;;;;5006494;28;20076;-70
2022/10/12 02:50:53;;;;;;;14.45;7.82;;;5.50;99.90;;;;;;5008496;28;20041;-69
2022/10/12 02:53:20;;;;;;;11.73;7.55;;;5.50;99.90;;;;;;5005789;28;20042;-70
2022/10/12 02:55:51;;;;;;;10.82;8.40;;;5.50;99.90;;;;;;4977024;28;20359;-70
2022/10/12 02:58:18;;;;;;;14.68;8.35;;;5.50;99.90;;;;;;5004027;28;21483;-69
2022/10/12 03:00:44;;;;;;;14.10;8.50;;;5.50;99.90;;;;;;5009496;28;20048;-70
2022/10/12 03:03:09;;;;;;;13.38;9.10;;;5.50;99.90;;;;;;5008086;28;20044;-70
2022/10/12 03:05:36;;;;;;;11.13;8.98;;;5.50;99.90;;;;;;5008018;28;20046;-70
2022/10/12 03:08:02;;;;;;;14.68;8.73;;;5.50;99.90;;;;;;5007473;28;20120;-69
2022/10/12 03:10:29;;;;;;;9.70;6.90;;;5.50;99.90;;;;;;5005270;28;20140;-69
2022/10/12 03:12:54;;;;;;;12.57;8.20;;;5.50;99.90;;;;;;5007513;28;20095;-69
2022/10/12 03:15:20;;;;;;;12.45;8.15;;;5.50;99.90;;;;;;4990066;28;20041;-69
2022/10/12 03:17:46;;;;;;;10.95;7.80;;;5.50;99.90;;;;;;4988207;28;20125;-69
2022/10/12 03:20:12;;;;;;;8.63;7.25;;;5.50;99.90;;;;;;4972555;28;20124;-70
2022/10/12 03:22:38;;;;;;;15.20;7.93;;;5.50;99.90;;;;;;4988391;28;20041;-69
2022/10/12 03:25:04;;;;;;;12.43;7.30;;;5.50;99.90;;;;;;5006662;28;20090;-70
2022/10/12 03:27:30;;;;;;;15.93;8.25;;;5.50;99.90;;;;;;4992163;28;20525;-70
2022/10/12 03:29:55;;;;;;;16.10;8.02;;;5.50;99.90;;;;;;4994215;28;20041;-70
2022/10/12 03:32:21;;;;;;;16.98;8.32;;;5.60;99.90;;;;;;5003879;28;20585;-69
2022/10/12 03:34:47;;;;;;;18.08;9.02;;;5.60;99.90;;;;;;5006373;28;20037;-69
2022/10/12 03:37:13;;;;;;;18.33;8.73;;;5.70;99.90;;;;;;4976001;28;20132;-70
2022/10/12 03:39:38;;;;;;;17.60;8.57;;;5.70;99.90;;;;;;5006757;28;20068;-70
2022/10/12 03:42:04;;;;;;;21.05;8.63;;;5.70;99.90;;;;;;4989594;28;20034;-69
2022/10/12 03:44:30;;;;;;;15.60;8.82;;;5.70;99.90;;;;;;4992667;28;20041;-70
2022/10/12 03:46:56;;;;;;;17.95;9.48;;;5.70;99.90;;;;;;4991179;28;20045;-70
2022/10/12 03:49:22;;;;;;;18.50;9.80;;;5.80;99.90;;;;;;5003571;28;20048;-69
2022/10/12 03:51:47;;;;;;;14.52;9.68;;;5.80;99.90;;;;;;5007847;28;20494;-69
2022/10/12 03:54:13;;;;;;;16.05;8.60;;;5.80;99.90;;;;;;4973452;28;20326;-69
2022/10/12 03:56:39;;;;;;;17.65;8.75;;;5.90;99.90;;;;;;5008021;28;20098;-70
2022/10/12 03:59:05;;;;;;;16.55;8.50;;;5.90;99.90;;;;;;4985732;28;20051;-70
2022/10/12 04:01:31;;;;;;;20.58;9.15;;;5.90;99.90;;;;;;4988536;28;20037;-70
2022/10/12 04:03:56;;;;;;;23.10;9.63;;;5.90;99.90;;;;;;4959660;28;20038;-70
2022/10/12 04:06:22;;;;;;;17.33;8.65;;;5.90;99.90;;;;;;4974340;28;20037;-70
2022/10/12 04:08:48;;;;;;;20.45;8.73;;;5.90;99.90;;;;;;4989511;28;20399;-70
2022/10/12 04:11:15;;;;;;;16.48;8.77;;;5.90;99.90;;;;;;4975368;28;20034;-70
2022/10/12 04:13:42;;;;;;;20.85;9.05;;;5.90;99.90;;;;;;5003473;28;20074;-70
2022/10/12 04:16:08;;;;;;;19.70;9.07;;;5.90;99.90;;;;;;4986324;28;20048;-70
2022/10/12 04:18:35;;;;;;;16.92;9.30;;;5.90;99.90;;;;;;5024059;28;20056;-69
2022/10/12 04:21:01;;;;;;;14.95;8.80;;;5.90;99.90;;;;;;4992076;28;20119;-69
2022/10/12 04:23:27;;;;;;;17.17;9.02;;;5.90;99.90;;;;;;5005699;28;20033;-70
2022/10/12 04:25:53;;;;;;;21.33;9.50;;;5.80;99.90;;;;;;4991850;28;20111;-70
2022/10/12 04:28:19;;;;;;;19.27;8.95;;;5.80;99.90;;;;;;4989691;28;20484;-69
2022/10/12 04:30:45;;;;;;;21.75;9.73;;;5.80;99.90;;;;;;4995126;28;20311;-69
2022/10/12 04:33:11;;;;;;;13.70;8.20;;;5.80;99.90;;;;;;5006104;28;20723;-68
2022/10/12 04:35:36;;;;;;;13.48;7.75;;;5.70;99.90;;;;;;5004019;28;20526;-69
2022/10/12 04:38:03;;;;;;;11.63;7.07;;;5.70;99.90;;;;;;5002876;28;20050;-70
2022/10/12 04:40:29;;;;;;;11.93;7.00;;;5.60;99.90;;;;;;4996702;28;20053;-69
2022/10/12 04:42:55;;;;;;;12.05;7.47;;;5.50;99.90;;;;;;4982323;28;20045;-70
2022/10/12 04:45:21;;;;;;;12.57;7.78;;;5.40;99.90;;;;;;4978525;28;20053;-70
2022/10/12 04:47:47;;;;;;;15.15;9.10;;;5.40;99.90;;;;;;4986590;28;20120;-70
2022/10/12 04:50:13;;;;;;;16.25;8.50;;;5.40;99.90;;;;;;4987395;28;20487;-70
2022/10/12 04:52:39;;;;;;;18.15;9.55;;;5.40;99.90;;;;;;4968705;28;20082;-70
2022/10/12 04:55:05;;;;;;;23.52;9.23;;;5.40;99.90;;;;;;4987314;28;20046;-69
2022/10/12 04:57:31;;;;;;;13.05;8.02;;;5.40;99.90;;;;;;4986742;28;20041;-70
2022/10/12 04:59:57;;;;;;;16.02;8.20;;;5.40;99.90;;;;;;4985113;28;20565;-70
2022/10/12 05:02:23;;;;;;;14.82;8.48;;;5.40;99.90;;;;;;4971639;28;20412;-70
2022/10/12 05:04:49;;;;;;;19.45;8.60;;;5.30;99.90;;;;;;4964784;28;20045;-69
2022/10/12 05:07:14;;;;;;;19.42;10.10;;;5.30;99.90;;;;;;4988071;28;20152;-70
2022/10/12 05:09:40;;;;;;;18.75;10.32;;;5.40;99.90;;;;;;4969899;28;20495;-69
2022/10/12 05:12:06;;;;;;;21.00;11.45;;;5.40;99.90;;;;;;5001360;28;20395;-70
2022/10/12 05:14:32;;;;;;;23.85;11.23;;;5.40;99.90;;;;;;4986280;28;20049;-69
2022/10/12 05:16:58;;;;;;;26.23;11.63;;;5.40;99.90;;;;;;5004846;28;20052;-70
2022/10/12 05:19:23;;;;;;;21.90;11.32;;;5.50;99.90;;;;;;4986320;28;20038;-70
2022/10/12 05:21:49;;;;;;;26.20;11.80;;;5.50;99.90;;;;;;4971440;28;20069;-70
2022/10/12 05:24:15;;;;;;;26.38;11.73;;;5.50;99.90;;;;;;4997447;28;20045;-70
2022/10/12 05:26:40;;;;;;;24.30;11.60;;;5.60;99.90;;;;;;5003491;28;20481;-70
2022/10/12 05:29:06;;;;;;;25.05;11.63;;;5.50;99.90;;;;;;4981254;28;20044;-70
2022/10/12 05:31:32;;;;;;;21.98;12.00;;;5.50;99.90;;;;;;4984817;28;20125;-70
2022/10/12 05:33:58;;;;;;;22.58;11.07;;;5.60;99.90;;;;;;4980997;28;20131;-70
2022/10/12 05:36:25;;;;;;;24.30;11.77;;;5.60;99.90;;;;;;4984690;28;20125;-70
2022/10/12 05:38:51;;;;;;;23.23;11.75;;;5.60;99.90;;;;;;4984116;28;20081;-70
2022/10/12 05:41:17;;;;;;;27.42;11.65;;;5.60;99.90;;;;;;4981414;28;20045;-70
2022/10/12 05:43:43;;;;;;;26.10;11.48;;;5.60;99.90;;;;;;4981048;28;20042;-70
2022/10/12 05:46:08;;;;;;;25.23;10.98;;;5.60;99.90;;;;;;4983737;28;20390;-69
2022/10/12 05:48:34;;;;;;;23.80;11.65;;;5.60;99.90;;;;;;4985765;28;20501;-69
2022/10/12 05:51:00;;;;;;;29.35;11.63;;;5.60;99.90;;;;;;4988502;28;20044;-69
2022/10/12 05:53:26;;;;;;;23.73;10.80;;;5.60;99.90;;;;;;4954863;28;20045;-69
2022/10/12 05:55:56;;;;;;;20.77;10.88;;;5.50;99.90;;;;;;4997813;28;20053;-69
2022/10/12 05:58:23;;;;;;;20.75;10.90;;;5.50;99.90;;;;;;5000331;28;20084;-69
2022/10/12 06:00:50;;;;;;;22.35;10.70;;;5.50;99.90;;;;;;5000579;28;20053;-69
2022/10/12 06:03:16;;;;;;;21.02;10.75;;;5.50;99.90;;;;;;5002400;28;20125;-70
2022/10/12 06:05:42;;;;;;;24.13;11.15;;;5.50;99.90;;;;;;5000786;28;20172;-70
2022/10/12 06:08:08;;;;;;;26.33;11.40;;;5.50;99.90;;;;;;4999223;28;20033;-69
2022/10/12 06:10:36;;;;;;;24.40;9.93;;;5.50;99.90;;;;;;4998262;28;20034;-69
2022/10/12 06:13:02;;;;;;;19.13;9.88;;;5.50;99.90;;;;;;4982544;28;20042;-69
2022/10/12 06:15:28;;;;;;;17.70;9.30;;;5.40;99.90;;;;;;4979643;28;20065;-69
2022/10/12 06:17:54;;;;;;;19.10;9.52;;;5.40;99.90;;;;;;5002599;28;20129;-69
2022/10/12 06:20:20;;;;;;;21.60;9.25;;;5.30;99.90;;;;;;4970922;28;20038;-69
2022/10/12 06:22:46;;;;;;;18.77;9.05;;;5.20;99.90;;;;;;4999565;28;20092;-69
2022/10/12 06:25:11;;;;;;;14.07;9.10;;;5.10;99.90;;;;;;4999188;28;20074;-69
2022/10/12 06:27:37;;;;;;;15.88;9.35;;;5.10;99.90;;;;;;4986282;28;20099;-69
2022/10/12 06:30:03;;;;;;;19.02;9.43;;;5.10;99.90;;;;;;4987224;28;20101;-69
2022/10/12 06:32:29;;;;;;;15.43;9.40;;;5.10;99.90;;;;;;5007561;28;20038;-69
2022/10/12 06:34:55;;;;;;;21.98;10.52;;;5.10;99.90;;;;;;5002547;28;20104;-69
2022/10/12 06:37:21;;;;;;;21.65;10.38;;;5.00;99.90;;;;;;5004245;28;20045;-69
2022/10/12 06:39:47;;;;;;;21.35;10.52;;;5.00;99.90;;;;;;4962185;28;20045;-69
2022/10/12 06:42:12;;;;;;;19.33;10.00;;;5.00;99.90;;;;;;4992474;28;20052;-70
2022/10/12 06:44:38;;;;;;;23.63;10.93;;;5.10;99.90;;;;;;4996103;28;20038;-69
2022/10/12 06:47:04;;;;;;;24.08;9.30;;;5.10;99.90;;;;;;5010192;28;20041;-69
2022/10/12 06:49:30;;;;;;;19.88;9.73;;;5.10;99.90;;;;;;4993371;28;20037;-70
2022/10/12 06:51:55;;;;;;;21.83;10.43;;;5.20;99.90;;;;;;4998829;28;20030;-70
2022/10/12 06:54:21;;;;;;;24.10;10.82;;;5.20;99.90;;;;;;5014278;28;20045;-70
2022/10/12 06:56:47;;;;;;;14.82;9.82;;;5.20;99.90;;;;;;4997907;28;20045;-70
2022/10/12 06:59:13;;;;;;;22.50;10.88;;;5.30;99.90;;;;;;5013985;28;20034;-69
2022/10/12 07:01:38;;;;;;;19.30;10.35;;;5.30;99.90;;;;;;4979273;28;20045;-69
2022/10/12 07:04:04;;;;;;;22.98;9.70;;;5.30;99.90;;;;;;4995478;28;20037;-69
2022/10/12 07:06:31;;;;;;;20.02;9.45;;;5.40;99.90;;;;;;4979568;28;20092;-70
2022/10/12 07:09:00;;;;;;;20.30;10.02;;;5.40;99.90;;;;;;5011688;28;20041;-70
2022/10/12 07:11:26;;;;;;;18.90;9.23;;;5.40;99.90;;;;;;4997716;28;20517;-69
2022/10/12 07:13:52;;;;;;;19.40;9.90;;;5.50;99.90;;;;;;5011837;28;20093;-69
2022/10/12 07:16:18;;;;;;;20.95;9.45;;;5.50;99.90;;;;;;5011834;28;20033;-70
2022/10/12 07:18:43;;;;;;;22.02;11.02;;;5.60;99.90;;;;;;5009230;28;20507;-69
2022/10/12 07:21:09;;;;;;;23.52;9.38;;;5.70;99.90;;;;;;4993830;28;20049;-69
2022/10/12 07:23:37;;;;;;;23.27;8.77;;;5.80;99.90;;;;;;4995096;28;20481;-70
2022/10/12 07:26:02;;;;;;;16.27;8.20;;;5.90;99.90;;;;;;4978916;28;20045;-70
2022/10/12 07:28:28;;;;;;;18.73;7.65;;;6.00;99.90;;;;;;5028250;28;20045;-69
2022/10/12 07:30:59;;;;;;;22.80;8.52;;;6.10;99.90;;;;;;5009201;28;20041;-69
2022/10/12 07:33:25;;;;;;;18.80;8.25;;;6.20;99.90;;;;;;5013282;28;20268;-70
2022/10/12 07:35:54;;;;;;;16.58;8.10;;;6.30;99.90;;;;;;5013669;28;20033;-70
2022/10/12 07:38:20;;;;;;;19.98;7.95;;;6.40;99.90;;;;;;4997998;28;20045;-70
2022/10/12 07:40:46;;;;;;;16.30;7.95;;;6.50;99.90;;;;;;5013399;28;20553;-69
2022/10/12 07:43:12;;;;;;;19.27;7.40;;;6.50;99.90;;;;;;4995601;28;20034;-69
2022/10/12 07:45:38;;;;;;;24.98;8.60;;;6.60;99.90;;;;;;4994402;28;20483;-70
2022/10/12 07:48:04;;;;;;;24.52;8.02;;;6.80;99.90;;;;;;4995727;28;20034;-69
2022/10/12 07:50:30;;;;;;;19.33;7.88;;;6.80;99.90;;;;;;4996015;28;20037;-69
2022/10/12 07:52:56;;;;;;;19.67;7.93;;;6.90;99.90;;;;;;4994634;28;20558;-69
2022/10/12 07:55:22;;;;;;;19.58;7.82;;;6.90;99.90;;;;;;5011140;28;20395;-70
2022/10/12 07:57:48;;;;;;;15.95;7.90;;;7.00;99.90;;;;;;5013039;28;20041;-70
2022/10/12 08:00:14;;;;;;;16.63;7.75;;;7.00;99.90;;;;;;4964941;28;20048;-69
2022/10/12 08:02:39;;;;;;;15.75;7.47;;;7.10;99.90;;;;;;5010854;28;20030;-69
2022/10/12 08:05:06;;;;;;;20.13;7.80;;;7.20;99.90;;;;;;5006143;28;20568;-70
2022/10/12 08:07:31;;;;;;;15.55;7.18;;;7.20;99.90;;;;;;4996588;28;20550;-69
2022/10/12 08:09:57;;;;;;;19.00;7.95;;;7.30;99.90;;;;;;4980512;28;20034;-70
2022/10/12 08:12:23;;;;;;;17.40;7.55;;;7.30;99.90;;;;;;4996266;28;20064;-70
2022/10/12 08:14:49;;;;;;;21.90;7.55;;;7.40;99.90;;;;;;4996669;28;20096;-70
2022/10/12 08:17:14;;;;;;;14.07;7.07;;;7.50;99.90;;;;;;4996448;28;20112;-70
2022/10/12 08:19:40;;;;;;;15.90;7.63;;;7.60;99.90;;;;;;4980151;28;20037;-70
2022/10/12 08:22:06;;;;;;;9.80;6.65;;;7.70;99.90;;;;;;5012343;28;20045;-70
2022/10/12 08:24:34;;;;;;;14.38;6.72;;;7.80;99.90;;;;;;4989771;28;20045;-70
2022/10/12 08:27:00;;;;;;;14.90;7.82;;;8.00;99.90;;;;;;5010128;28;20499;-70
2022/10/12 08:29:25;;;;;;;17.02;7.18;;;8.20;99.90;;;;;;4991822;28;20245;-70
2022/10/12 08:31:53;;;;;;;16.27;6.35;;;8.30;99.90;;;;;;4996190;28;20045;-70
2022/10/12 08:34:19;;;;;;;16.40;6.93;;;8.40;99.90;;;;;;4996154;28;20048;-70
2022/10/12 08:36:44;;;;;;;18.13;6.68;;;8.50;99.90;;;;;;4979785;28;20049;-70
2022/10/12 08:39:10;;;;;;;21.52;7.65;;;8.60;99.90;;;;;;4995623;28;20111;-70
2022/10/12 08:42:27;;;;;;;16.17;6.95;;;8.60;99.90;;;;;;5012213;28;20103;-70
2022/10/12 08:45:24;;;;;;;12.40;6.65;;;8.70;99.90;;;;;;4933794;29;20111;-69
2022/10/12 08:47:57;;;;;;;24.58;6.50;;;8.80;99.90;;;;;;5011929;28;20033;-70
2022/10/12 08:50:32;;;;;;;14.82;6.82;;;9.00;99.90;;;;;;5011970;28;20398;-70
2022/10/12 08:53:36;;;;;;;14.70;6.78;;;9.00;99.90;;;;;;4995707;28;20101;-70
2022/10/12 08:56:02;;;;;;;16.55;6.75;;;9.10;99.90;;;;;;4995681;28;20425;-70
2022/10/12 08:58:36;;;;;;;12.95;5.80;;;9.20;99.90;;;;;;4976540;28;20281;-69
2022/10/12 09:01:26;;;;;;;16.88;7.75;;;9.30;99.90;;;;;;4976598;28;20112;-69
2022/10/12 09:04:14;;;;;;;19.55;7.75;;;9.40;99.90;;;;;;4994969;28;20065;-70
2022/10/12 09:07:07;;;;;;;16.92;6.53;;;9.40;99.90;;;;;;4995556;28;20501;-70
2022/10/12 09:09:55;;;;;;;14.63;6.93;;;9.50;99.90;;;;;;5008438;28;20052;-70
2022/10/12 09:12:33;;;;;;;14.85;6.65;;;9.60;99.90;;;;;;5011618;28;20073;-70
2022/10/12 09:15:04;;;;;;;14.63;6.95;;;9.70;99.90;;;;;;5011809;28;20415;-69
2022/10/12 09:18:00;;;;;;;17.20;7.13;;;9.70;99.90;;;;;;4995467;28;20071;-70
2022/10/12 09:20:34;;;;;;;24.20;8.20;;;9.80;99.90;;;;;;5011555;28;20041;-70
2022/10/12 09:23:26;;;;;;;15.05;6.85;;;9.90;99.90;;;;;;4995187;28;20502;-70
2022/10/12 09:26:18;;;;;;;13.68;7.00;;;10.00;99.90;;;;;;5011462;28;20091;-70
2022/10/12 09:28:54;;;;;;;17.85;7.00;;;10.00;99.90;;;;;;5011340;28;20044;-70
2022/10/12 09:31:40;;;;;;;16.85;6.85;;;10.10;99.90;;;;;;5011037;28;20522;-70
2022/10/12 09:34:08;;;;;;;17.23;6.93;;;10.10;99.90;;;;;;4994120;28;20557;-70
2022/10/12 09:36:41;;;;;;;15.48;6.72;;;10.20;99.90;;;;;;5005489;28;20038;-70
2022/10/12 09:39:20;;;;;;;14.35;6.63;;;10.30;99.90;;;;;;4976259;28;20054;-70
2022/10/12 09:41:48;;;;;;;18.33;7.22;;;10.30;99.90;;;;;;4994695;28;20041;-70
2022/10/12 09:44:19;;;;;;;16.77;6.95;;;10.30;99.90;;;;;;4994645;28;20051;-70
2022/10/12 09:46:52;;;;;;;14.70;7.03;;;10.30;99.90;;;;;;5011411;28;20464;-70
2022/10/12 09:49:18;;;;;;;17.70;7.72;;;10.40;99.90;;;;;;5011394;28;20379;-70
2022/10/12 09:51:45;;;;;;;14.10;6.82;;;10.50;99.90;;;;;;4994792;28;20037;-70
2022/10/12 09:54:18;;;;;;;16.20;6.80;;;10.50;99.90;;;;;;4990145;28;20060;-70
2022/10/12 09:56:51;;;;;;;18.98;7.22;;;10.60;99.90;;;;;;4994953;28;20049;-70
2022/10/12 09:59:38;;;;;;;15.90;6.85;;;10.70;99.90;;;;;;5011590;28;20537;-70
2022/10/12 10:02:15;;;;;;;16.33;6.15;;;10.80;99.90;;;;;;5010893;28;20064;-70
2022/10/12 10:04:42;;;;;;;15.45;6.65;;;11.00;99.90;;;;;;4994592;28;20053;-70
2022/10/12 10:07:32;;;;;;;13.15;6.63;;;11.10;99.90;;;;;;5011016;28;20037;-70
2022/10/12 10:10:13;;;;;;;14.60;6.20;;;11.20;99.90;;;;;;5028825;28;20087;-70
2022/10/12 10:12:48;;;;;;;10.95;5.97;;;11.40;99.90;;;;;;5011135;28;20042;-70
2022/10/12 10:15:37;;;;;;;10.93;5.57;;;11.70;99.90;;;;;;5014557;28;20038;-70
2022/10/12 10:18:43;;;;;;;25.13;7.47;;;12.00;99.90;;;;;;5006446;28;20390;-70
2022/10/12 10:21:12;;;;;;;10.55;5.20;;;12.40;99.90;;;;;;4919344;29;20503;-70
2022/10/12 10:23:49;;;;;;;14.77;6.30;;;12.60;99.90;;;;;;4933357;29;20162;-70
2022/10/12 10:26:18;;;;;;;14.30;5.57;;;12.80;99.90;;;;;;4965290;28;20095;-70
2022/10/12 10:28:46;;;;;;;14.40;5.50;;;13.10;99.90;;;;;;4998404;28;20041;-70
2022/10/12 10:31:12;;;;;;;14.27;6.13;;;13.20;99.90;;;;;;4998312;28;20076;-70
2022/10/12 10:34:17;;;;;;;15.32;5.95;;;13.40;99.90;;;;;;5032029;28;20402;-70
2022/10/12 10:37:05;;;;;;;11.98;5.30;;;13.50;99.90;;;;;;5017088;28;20513;-70
2022/10/12 10:39:53;;;;;;;13.82;5.03;;;13.60;99.90;;;;;;5032780;28;20053;-70
2022/10/12 10:42:38;;;;;;;15.70;5.47;;;13.80;99.90;;;;;;5013215;28;20107;-70
2022/10/12 10:45:41;;;;;;;17.10;4.70;;;13.80;99.90;;;;;;5015954;28;20121;-70
2022/10/12 10:48:22;;;;;;;14.65;5.00;;;13.90;99.90;;;;;;4999560;28;20137;-70
2022/10/12 10:51:06;;;;;;;11.77;4.07;;;13.90;99.90;;;;;;4997888;28;20112;-70
2022/10/12 10:53:46;;;;;;;10.18;4.50;;;14.00;99.90;;;;;;4996860;28;20271;-70
2022/10/12 10:56:30;;;;;;;11.63;4.53;;;14.20;99.90;;;;;;4979079;28;20427;-70
2022/10/12 10:59:11;;;;;;;13.00;4.32;;;14.30;99.90;;;;;;4987213;28;20364;-70
2022/10/12 11:01:53;;;;;;;9.77;4.05;;;14.50;99.90;;;;;;5010454;28;20077;-70
2022/10/12 11:04:41;;;;;;;12.82;4.93;;;14.60;99.90;;;;;;5013905;28;20041;-70
2022/10/12 11:07:31;;;;;;;7.78;3.80;;;14.60;99.90;;;;;;5013969;28;20045;-70
2022/10/12 11:10:01;;;;;;;8.38;4.22;;;14.70;99.90;;;;;;5014099;28;20033;-70
2022/10/12 11:12:34;;;;;;;12.75;4.25;;;14.80;99.90;;;;;;5011410;28;20041;-70
2022/10/12 11:15:26;;;;;;;7.55;3.55;;;14.90;99.90;;;;;;5013706;28;20100;-70
2022/10/12 11:18:11;;;;;;;11.13;3.90;;;14.90;99.90;;;;;;5003088;28;20518;-70
2022/10/12 11:21:09;;;;;;;8.18;3.70;;;15.10;99.90;;;;;;5031200;28;20311;-70
2022/10/12 11:23:45;;;;;;;9.50;3.40;;;15.10;99.90;;;;;;4996724;28;20053;-70
2022/10/12 11:26:27;;;;;;;8.00;3.58;;;15.20;99.90;;;;;;5012935;28;20533;-70
2022/10/12 11:28:55;;;;;;;6.40;3.20;;;15.30;99.90;;;;;;5029123;28;20518;-70
2022/10/12 11:31:31;;;;;;;13.23;3.85;;;15.40;99.90;;;;;;5011187;28;20045;-70
2022/10/12 11:34:02;;;;;;;9.13;3.00;;;15.50;99.90;;;;;;4997104;28;20171;-70
2022/10/12 11:36:30;;;;;;;7.95;3.00;;;15.50;99.90;;;;;;5013612;28;20530;-70
2022/10/12 11:39:02;;;;;;;9.98;3.42;;;15.40;99.90;;;;;;5008961;28;20049;-70
2022/10/12 11:41:32;;;;;;;12.18;3.20;;;15.40;99.90;;;;;;5013126;28;20506;-70
2022/10/12 11:44:26;;;;;;;12.30;3.50;;;15.40;99.90;;;;;;5012962;28;20037;-70
2022/10/12 11:46:59;;;;;;;9.45;3.80;;;15.50;99.90;;;;;;4961547;28;20041;-70
2022/10/12 11:49:33;;;;;;;11.20;3.58;;;15.40;99.90;;;;;;5013197;28;20091;-70
2022/10/12 11:52:07;;;;;;;8.52;3.60;;;15.40;99.90;;;;;;5013148;28;20033;-70
2022/10/12 11:55:02;;;;;;;8.50;3.88;;;15.40;99.90;;;;;;5013090;28;20052;-70
2022/10/12 11:57:35;;;;;;;12.57;3.30;;;15.50;99.90;;;;;;4967124;28;20061;-70
2022/10/12 12:00:15;;;;;;;12.80;3.83;;;15.50;99.90;;;;;;5013239;28;20033;-70
2022/10/12 12:02:48;;;;;;;7.10;3.30;;;15.60;99.90;;;;;;5012647;28;20033;-70
2022/10/12 12:05:22;;;;;;;8.88;3.40;;;15.60;99.90;;;;;;5013487;28;20116;-70
2022/10/12 12:07:53;;;;;;;9.85;3.45;;;15.60;99.90;;;;;;5012469;28;20046;-70
2022/10/12 12:10:30;;;;;;;11.73;3.40;;;15.60;99.90;;;;;;4990384;28;20053;-70
2022/10/12 12:13:16;;;;;;;8.45;3.35;;;15.80;99.90;;;;;;5012555;28;20498;-70
2022/10/12 12:15:51;;;;;;;7.93;3.28;;;15.90;99.90;;;;;;4994502;28;20038;-70
2022/10/12 12:18:20;;;;;;;7.80;3.22;;;15.90;99.90;;;;;;5012371;28;20100;-70
2022/10/12 12:20:46;;;;;;;11.63;3.33;;;16.00;99.90;;;;;;4991586;28;20053;-70
2022/10/12 12:23:39;;;;;;;8.48;3.53;;;16.10;99.90;;;;;;4995804;28;20096;-70
2022/10/12 12:26:04;;;;;;;;;;;16.20;99.90;;;;;;5012715;28;20042;-70
2022/10/12 12:28:31;;;;;;;10.65;3.80;;;16.30;99.90;;;;;;5011986;28;19923;-71
2022/10/12 12:31:01;;;;;;;7.93;3.42;;;16.20;99.90;;;;;;5012365;28;20038;-71
2022/10/12 12:33:41;;;;;;;7.50;3.60;;;16.10;99.90;;;;;;4995673;28;20037;-70
2022/10/12 12:36:10;;;;;;;12.95;3.42;;;16.10;99.90;;;;;;4995089;28;20121;-70
2022/10/12 12:38:49;;;;;;;11.02;3.30;;;16.00;99.90;;;;;;4995402;28;20101;-70
2022/10/12 12:41:20;;;;;;;9.90;4.07;;;16.00;99.90;;;;;;4990898;28;20085;-70
2022/10/12 12:44:00;;;;;;;10.43;4.35;;;16.00;99.90;;;;;;5011844;28;20045;-70
2022/10/12 12:46:54;;;;;;;10.57;3.90;;;16.10;99.90;;;;;;5014244;28;20251;-70
2022/10/12 12:49:56;;;;;;;9.30;3.67;;;16.10;99.90;;;;;;4960134;28;20394;-70
2022/10/12 12:52:36;;;;;;;10.30;3.85;;;16.10;99.90;;;;;;4978037;28;20081;-70
2022/10/12 12:55:02;;;;;;;6.97;3.08;;;16.20;99.90;;;;;;4989954;28;20133;-70
2022/10/12 12:58:02;;;;;;;14.70;4.05;;;16.20;99.90;;;;;;4994384;28;20098;-70
2022/10/12 13:01:00;;;;;;;9.00;3.00;;;16.20;99.80;;;;;;5009538;28;20386;-70
2022/10/12 13:03:40;;;;;;;8.45;3.47;;;16.20;99.90;;;;;;4995780;28;20048;-70
2022/10/12 13:06:15;;;;;;;12.30;3.50;;;16.20;99.90;;;;;;4992110;28;20038;-70
2022/10/12 13:08:46;;;;;;;13.35;3.92;;;16.20;99.90;;;;;;5008079;28;20037;-70
2022/10/12 13:11:18;;;;;;;10.73;3.83;;;16.30;99.90;;;;;;4991347;28;20077;-70